createdAt,value
2022-09-22T00:01:24.951Z,1.00
2022-09-22T00:03:56.091Z,1.45
2022-09-22T00:06:23.931Z,2.10
2022-09-22T00:08:53.762Z,1.70
2022-09-22T00:11:23.514Z,1.15
2022-09-22T00:13:56.127Z,1.33
2022-09-22T00:16:30.627Z,1.77
2022-09-22T00:18:57.890Z,1.65
2022-09-22T00:21:27.748Z,1.48
2022-09-22T00:23:54.866Z,1.83
2022-09-22T00:26:23.419Z,1.80
2022-09-22T00:28:52.111Z,1.80
2022-09-22T00:33:47.519Z,1.95
2022-09-22T00:36:15.810Z,1.90
2022-09-22T00:38:43.263Z,1.70
2022-09-22T00:41:16.766Z,1.90
2022-09-22T00:43:47.024Z,1.92
2022-09-22T00:46:26.511Z,1.70
2022-09-22T00:48:59.549Z,1.77
2022-09-22T00:51:32.439Z,1.70
2022-09-22T00:54:02.883Z,2.25
2022-09-22T00:56:34.939Z,1.90
2022-09-22T00:59:08.029Z,1.95
2022-09-22T01:01:36.790Z,1.80
2022-09-22T01:04:04.473Z,1.73
2022-09-22T01:06:31.377Z,2.67
2022-09-22T01:08:59.744Z,2.05
2022-09-22T01:11:27.949Z,2.40
2022-09-22T01:14:13.169Z,2.10
2022-09-22T01:17:00.895Z,1.75
2022-09-22T01:19:41.259Z,2.00
2022-09-22T01:22:26.416Z,1.92
2022-09-22T01:25:20.780Z,1.70
2022-09-22T01:28:10.797Z,2.10
2022-09-22T01:30:47.875Z,1.95
2022-09-22T01:33:34.173Z,2.10
2022-09-22T01:36:21.257Z,1.77
2022-09-22T01:39:01.039Z,2.20
2022-09-22T01:41:48.782Z,2.30
2022-09-22T01:44:28.709Z,1.90
2022-09-22T01:47:19.613Z,1.90
2022-09-22T01:50:04.447Z,2.10
2022-09-22T01:52:34.160Z,1.85
2022-09-22T01:55:11.005Z,2.08
2022-09-22T01:57:39.100Z,1.80
2022-09-22T02:00:08.844Z,1.80
2022-09-22T02:02:53.889Z,1.77
2022-09-22T02:05:36.864Z,1.73
2022-09-22T02:08:10.007Z,1.75
2022-09-22T02:10:45.896Z,1.92
2022-09-22T02:13:12.641Z,1.83
2022-09-22T02:15:57.989Z,1.70
2022-09-22T02:18:29.663Z,2.00
2022-09-22T02:20:56.723Z,1.90
2022-09-22T02:23:23.563Z,1.90
2022-09-22T02:25:51.005Z,1.80
2022-09-22T02:28:20.427Z,1.70
2022-09-22T02:31:10.498Z,1.95
2022-09-22T02:33:39.743Z,2.03
2022-09-22T02:36:15.361Z,2.10
2022-09-22T02:38:55.015Z,2.13
2022-09-22T02:41:37.957Z,2.03
2022-09-22T02:44:14.842Z,1.75
2022-09-22T02:46:52.558Z,2.17
2022-09-22T02:49:19.947Z,1.80
2022-09-22T02:51:49.224Z,2.00
2022-09-22T02:54:16.109Z,2.15
2022-09-22T02:56:43.558Z,2.20
2022-09-22T02:59:11.096Z,2.10
2022-09-22T03:01:38.151Z,2.35
2022-09-22T03:04:05.603Z,2.45
2022-09-22T03:06:32.989Z,3.03
2022-09-22T03:08:59.794Z,3.30
2022-09-22T03:11:27.208Z,3.00
2022-09-22T03:13:54.585Z,3.33
2022-09-22T03:16:21.419Z,3.30
2022-09-22T03:18:48.276Z,2.85
2022-09-22T03:21:15.160Z,3.13
2022-09-22T03:23:41.881Z,3.17
2022-09-22T03:26:08.539Z,2.70
2022-09-22T03:28:35.585Z,2.78
2022-09-22T03:31:02.370Z,2.80
2022-09-22T03:33:29.153Z,2.85
2022-09-22T03:35:55.896Z,3.00
2022-09-22T03:38:22.769Z,2.90
2022-09-22T03:40:51.128Z,3.15
2022-09-22T03:43:17.937Z,3.38
2022-09-22T03:45:45.166Z,2.90
2022-09-22T03:48:12.069Z,3.28
2022-09-22T03:50:38.699Z,3.13
2022-09-22T03:53:05.427Z,3.08
2022-09-22T03:55:32.077Z,3.10
2022-09-22T03:57:58.721Z,3.65
2022-09-22T04:00:25.466Z,3.80
2022-09-22T04:02:52.137Z,3.20
2022-09-22T04:05:18.858Z,4.03
2022-09-22T04:07:45.584Z,3.53
2022-09-22T04:10:12.313Z,3.72
2022-09-22T04:12:38.973Z,3.92
2022-09-22T04:15:06.275Z,3.75
2022-09-22T04:17:32.981Z,3.53
2022-09-22T04:19:59.679Z,3.80
2022-09-22T04:22:26.458Z,3.72
2022-09-22T04:24:53.949Z,3.95
2022-09-22T04:27:24.072Z,5.05
2022-09-22T04:29:50.855Z,3.65
2022-09-22T04:32:18.269Z,3.58
2022-09-22T04:34:44.976Z,3.67
2022-09-22T04:37:12.135Z,4.03
2022-09-22T04:39:38.900Z,4.10
2022-09-22T04:42:05.973Z,4.00
2022-09-22T04:44:35.128Z,3.90
2022-09-22T04:47:02.384Z,3.97
2022-09-22T04:49:29.064Z,3.55
2022-09-22T04:51:55.699Z,3.90
2022-09-22T04:54:22.369Z,4.68
2022-09-22T04:56:49.119Z,3.25
2022-09-22T04:59:15.771Z,3.60
2022-09-22T05:01:43.680Z,4.38
2022-09-22T05:04:10.578Z,3.50
2022-09-22T05:06:37.423Z,4.07
2022-09-22T05:09:04.701Z,4.15
2022-09-22T05:11:31.855Z,4.10
2022-09-22T05:13:58.766Z,3.78
2022-09-22T05:16:26.020Z,3.92
2022-09-22T05:18:53.152Z,3.90
2022-09-22T05:21:19.953Z,3.58
2022-09-22T05:23:47.480Z,3.53
2022-09-22T05:26:14.317Z,4.50
2022-09-22T05:28:41.082Z,3.90
2022-09-22T05:31:08.192Z,3.88
2022-09-22T05:33:34.871Z,3.25
2022-09-22T05:36:01.851Z,3.28
2022-09-22T05:38:28.929Z,3.17
2022-09-22T05:40:55.587Z,3.30
2022-09-22T05:43:22.248Z,3.53
2022-09-22T05:45:49.845Z,2.85
2022-09-22T05:48:16.654Z,3.08
2022-09-22T05:50:44.544Z,2.97
2022-09-22T05:53:12.332Z,3.00
2022-09-22T05:55:40.217Z,3.00
2022-09-22T05:58:09.242Z,3.00
2022-09-22T06:00:36.513Z,3.05
2022-09-22T06:03:03.463Z,3.15
2022-09-22T06:05:30.411Z,2.80
2022-09-22T06:08:03.415Z,2.80
2022-09-22T06:10:31.919Z,2.80
2022-09-22T06:13:03.152Z,3.15
2022-09-22T06:15:31.179Z,2.88
2022-09-22T06:17:57.968Z,2.92
2022-09-22T06:20:24.842Z,3.17
2022-09-22T06:22:51.852Z,2.83
2022-09-22T06:25:18.756Z,3.03
2022-09-22T06:27:46.955Z,2.95
2022-09-22T06:30:13.967Z,3.28
2022-09-22T06:32:40.693Z,3.40
2022-09-22T06:35:08.308Z,3.67
2022-09-22T06:37:38.474Z,4.05
2022-09-22T06:40:11.091Z,3.78
2022-09-22T06:42:42.420Z,3.38
2022-09-22T06:45:09.632Z,3.70
2022-09-22T06:47:36.277Z,3.47
2022-09-22T06:50:05.638Z,3.25
2022-09-22T06:52:35.485Z,3.13
2022-09-22T06:55:03.966Z,3.55
2022-09-22T06:57:32.688Z,3.55
2022-09-22T07:02:29.570Z,3.88
2022-09-22T07:04:59.120Z,3.65
2022-09-22T07:07:32.139Z,4.38
2022-09-22T07:09:58.822Z,3.92
2022-09-22T07:12:26.410Z,4.45
2022-09-22T07:14:53.339Z,4.65
2022-09-22T07:17:23.727Z,5.18
2022-09-22T07:19:51.449Z,5.65
2022-09-22T07:22:19.160Z,4.53
2022-09-22T07:24:45.928Z,4.72
2022-09-22T07:27:20.372Z,4.97
2022-09-22T07:29:48.846Z,5.63
2022-09-22T07:32:15.646Z,4.80
2022-09-22T07:34:42.361Z,6.03
2022-09-22T07:37:09.088Z,5.47
2022-09-22T07:39:35.820Z,6.40
2022-09-22T07:42:02.583Z,7.57
2022-09-22T07:45:01.678Z,8.45
2022-09-22T07:47:47.234Z,9.77
2022-09-22T07:50:17.471Z,7.53
2022-09-22T07:52:50.977Z,9.02
2022-09-22T07:55:17.883Z,9.27
2022-09-22T07:57:48.866Z,9.80
2022-09-22T08:00:15.815Z,10.15
2022-09-22T08:02:44.540Z,10.45
2022-09-22T08:07:38.323Z,10.15
2022-09-22T08:10:06.112Z,9.43
2022-09-22T08:12:32.775Z,10.38
2022-09-22T08:14:59.400Z,10.25
2022-09-22T08:17:26.178Z,9.40
2022-09-22T08:19:52.973Z,9.15
2022-09-22T08:22:19.696Z,9.80
2022-09-22T08:24:46.382Z,9.10
2022-09-22T08:27:13.119Z,9.70
2022-09-22T08:29:39.870Z,9.48
2022-09-22T08:32:06.705Z,8.30
2022-09-22T08:34:33.374Z,8.43
2022-09-22T08:37:00.072Z,8.48
2022-09-22T08:39:26.748Z,8.50
2022-09-22T08:42:05.906Z,7.90
2022-09-22T08:44:49.263Z,7.75
2022-09-22T08:47:42.378Z,6.80
2022-09-22T08:50:51.998Z,6.63
2022-09-22T08:53:23.365Z,6.35
2022-09-22T08:55:57.558Z,5.63
2022-09-22T08:58:37.811Z,5.28
2022-09-22T09:01:30.942Z,4.95
2022-09-22T09:04:14.102Z,4.90
2022-09-22T09:07:23.334Z,3.33
2022-09-22T09:10:16.000Z,4.43
2022-09-22T09:13:03.729Z,2.60
2022-09-22T09:15:30.461Z,2.50
2022-09-22T09:18:01.752Z,2.50
2022-09-22T09:20:28.469Z,2.42
2022-09-22T09:22:56.112Z,1.90
2022-09-22T09:25:42.011Z,2.10
2022-09-22T09:28:27.559Z,1.88
2022-09-22T09:31:07.619Z,1.90
2022-09-22T09:33:47.423Z,2.00
2022-09-22T09:36:20.543Z,1.80
2022-09-22T09:38:51.968Z,1.55
2022-09-22T09:41:32.382Z,1.70
2022-09-22T09:44:00.243Z,2.17
2022-09-22T09:46:54.667Z,1.43
2022-09-22T09:49:23.326Z,1.70
2022-09-22T09:54:24.331Z,1.67
2022-09-22T09:57:11.471Z,1.92
2022-09-22T10:00:05.316Z,1.70
2022-09-22T10:02:35.622Z,1.50
2022-09-22T10:05:06.084Z,1.63
2022-09-22T10:07:48.045Z,1.70
2022-09-22T10:10:29.798Z,2.30
2022-09-22T10:13:33.635Z,2.25
2022-09-22T10:16:28.842Z,1.77
2022-09-22T10:19:20.773Z,2.47
2022-09-22T10:21:47.589Z,1.77
2022-09-22T10:24:33.085Z,1.80
2022-09-22T10:27:02.504Z,1.55
2022-09-22T10:29:32.023Z,1.77
2022-09-22T10:32:03.395Z,1.60
2022-09-22T10:34:42.488Z,1.67
2022-09-22T10:37:12.229Z,1.60
2022-09-22T10:39:57.652Z,1.45
2022-09-22T10:42:38.555Z,1.50
2022-09-22T10:45:19.364Z,1.38
2022-09-22T10:48:13.921Z,1.45
2022-09-22T10:51:27.554Z,1.30
2022-09-22T10:54:06.566Z,1.77
2022-09-22T10:56:44.143Z,1.35
2022-09-22T10:59:25.985Z,1.90
2022-09-22T11:01:57.591Z,1.30
2022-09-22T11:04:49.738Z,1.30
2022-09-22T11:07:46.470Z,2.00
2022-09-22T11:10:53.488Z,1.70
2022-09-22T11:13:53.127Z,2.05
2022-09-22T11:16:44.735Z,2.05
2022-09-22T11:20:19.023Z,1.98
2022-09-22T11:22:58.222Z,1.60
2022-09-22T11:25:55.244Z,1.67
2022-09-22T11:28:43.720Z,1.50
2022-09-22T11:33:56.892Z,1.58
2022-09-22T11:36:51.588Z,1.40
2022-09-22T11:39:38.371Z,1.48
2022-09-22T11:42:31.086Z,1.50
2022-09-22T11:45:30.391Z,1.67
2022-09-22T11:48:23.063Z,1.42
2022-09-22T11:51:00.981Z,1.20
2022-09-22T11:54:01.807Z,1.17
2022-09-22T11:56:42.447Z,1.10
2022-09-22T11:59:49.753Z,1.00
2022-09-22T12:02:21.648Z,1.60
2022-09-22T12:05:02.583Z,1.63
2022-09-22T12:07:34.340Z,1.42
2022-09-22T12:10:06.540Z,1.08
2022-09-22T12:12:34.172Z,1.48
2022-09-22T12:15:24.228Z,2.10
2022-09-22T12:18:19.071Z,1.60
2022-09-22T12:21:18.225Z,2.03
2022-09-22T12:23:51.301Z,1.83
2022-09-22T12:26:34.053Z,2.58
2022-09-22T12:29:06.868Z,2.58
2022-09-22T12:31:39.924Z,2.03
2022-09-22T12:34:18.485Z,2.30
2022-09-22T12:36:46.062Z,1.90
2022-09-22T12:39:18.953Z,1.75
2022-09-22T12:41:52.294Z,2.00
2022-09-22T12:44:25.157Z,1.83
2022-09-22T12:46:57.538Z,2.03
2022-09-22T12:49:24.364Z,1.33
2022-09-22T12:51:52.344Z,1.50
2022-09-22T12:54:27.625Z,1.20
2022-09-22T12:57:20.798Z,1.70
2022-09-22T13:00:07.069Z,1.50
2022-09-22T13:02:42.946Z,1.33
2022-09-22T13:05:09.568Z,1.35
2022-09-22T13:07:43.941Z,1.25
2022-09-22T13:10:22.870Z,1.35
2022-09-22T13:13:10.472Z,1.17
2022-09-22T13:15:46.089Z,1.08
2022-09-22T13:18:34.405Z,1.10
2022-09-22T13:23:54.859Z,1.23
2022-09-22T13:26:30.559Z,1.00
2022-09-22T13:29:13.452Z,0.88
2022-09-22T13:31:54.367Z,1.30
2022-09-22T13:34:35.672Z,1.02
2022-09-22T13:37:18.481Z,0.88
2022-09-22T13:39:48.488Z,1.40
2022-09-22T13:42:24.823Z,1.38
2022-09-22T13:45:06.767Z,1.20
2022-09-22T13:47:36.315Z,1.02
2022-09-22T13:50:09.637Z,1.10
2022-09-22T13:52:39.473Z,1.10
2022-09-22T13:55:16.823Z,0.88
2022-09-22T13:57:43.820Z,1.15
2022-09-22T14:00:24.611Z,1.08
2022-09-22T14:02:52.348Z,0.88
2022-09-22T14:05:27.570Z,1.20
2022-09-22T14:08:11.324Z,1.40
2022-09-22T14:10:42.072Z,1.00
2022-09-22T14:15:54.379Z,1.30
2022-09-22T14:18:29.149Z,0.93
2022-09-22T14:20:58.150Z,1.20
2022-09-22T14:23:33.058Z,1.35
2022-09-22T14:26:03.939Z,1.23
2022-09-22T14:28:36.824Z,1.13
2022-09-22T14:31:16.134Z,0.82
2022-09-22T14:33:46.389Z,0.95
2022-09-22T14:36:21.870Z,1.17
2022-09-22T14:39:07.390Z,1.20
2022-09-22T14:41:37.548Z,1.05
2022-09-22T14:44:26.575Z,0.88
2022-09-22T14:46:55.724Z,1.00
2022-09-22T14:49:42.415Z,1.80
2022-09-22T14:52:29.488Z,1.80
2022-09-22T14:54:59.503Z,1.45
2022-09-22T14:57:27.339Z,1.23
2022-09-22T15:00:15.592Z,1.38
2022-09-22T15:05:26.428Z,0.85
2022-09-22T15:07:56.219Z,0.93
2022-09-22T15:10:27.911Z,1.10
2022-09-22T15:12:56.483Z,1.27
2022-09-22T15:18:13.068Z,1.20
2022-09-22T15:21:17.513Z,0.85
2022-09-22T15:23:48.307Z,1.00
2022-09-22T15:26:30.719Z,1.40
2022-09-22T15:28:59.027Z,1.13
2022-09-22T15:31:29.621Z,0.90
2022-09-22T15:34:00.079Z,1.55
2022-09-22T15:36:32.846Z,1.17
2022-09-22T15:39:06.800Z,0.85
2022-09-22T15:41:34.926Z,1.08
2022-09-22T15:44:02.633Z,1.65
2022-09-22T15:46:34.018Z,1.50
2022-09-22T15:49:13.946Z,1.33
2022-09-22T15:51:41.186Z,1.02
2022-09-22T15:54:14.770Z,1.20
2022-09-22T15:56:43.433Z,1.60
2022-09-22T15:59:18.180Z,1.30
2022-09-22T16:01:45.563Z,1.10
2022-09-22T16:04:12.906Z,0.70
2022-09-22T16:06:48.087Z,0.75
2022-09-22T16:09:17.294Z,1.10
2022-09-22T16:11:44.371Z,0.93
2022-09-22T16:14:11.681Z,0.90
2022-09-22T16:16:39.023Z,1.13
2022-09-22T16:19:09.500Z,0.73
2022-09-22T16:21:40.423Z,0.82
2022-09-22T16:24:10.306Z,0.80
2022-09-22T16:26:39.186Z,0.80
2022-09-22T16:29:07.181Z,0.80
2022-09-22T16:31:34.780Z,0.82
2022-09-22T16:34:03.344Z,0.83
2022-09-22T16:39:01.895Z,0.80
2022-09-22T16:41:30.976Z,0.70
2022-09-22T16:43:58.112Z,1.00
2022-09-22T16:46:28.815Z,0.80
2022-09-22T16:49:04.027Z,0.80
2022-09-22T16:51:36.341Z,0.80
2022-09-22T16:54:04.465Z,0.75
2022-09-22T16:56:33.295Z,0.70
2022-09-22T16:59:03.168Z,0.80
2022-09-22T17:01:32.320Z,0.70
2022-09-22T17:03:59.266Z,0.77
2022-09-22T17:06:27.157Z,1.08
2022-09-22T17:08:57.921Z,0.60
2022-09-22T17:11:30.146Z,0.70
2022-09-22T17:14:02.886Z,1.02
2022-09-22T17:16:32.751Z,0.73
2022-09-22T17:19:04.570Z,1.10
2022-09-22T17:21:34.700Z,0.90
2022-09-22T17:24:02.620Z,0.90
2022-09-22T17:26:34.724Z,1.15
2022-09-22T17:29:01.913Z,0.80
2022-09-22T17:31:31.158Z,1.00
2022-09-22T17:33:58.077Z,1.13
2022-09-22T17:36:27.007Z,1.00
2022-09-22T17:38:56.370Z,1.10
2022-09-22T17:41:26.093Z,0.95
2022-09-22T17:43:57.610Z,1.25
2022-09-22T17:46:29.702Z,1.10
2022-09-22T17:49:14.871Z,0.80
2022-09-22T17:52:01.281Z,0.80
2022-09-22T17:54:59.846Z,1.20
2022-09-22T17:57:31.397Z,1.15
2022-09-22T17:59:59.290Z,1.02
2022-09-22T18:02:28.201Z,1.00
2022-09-22T18:04:55.223Z,0.90
2022-09-22T18:07:24.084Z,0.80
2022-09-22T18:09:52.361Z,0.80
2022-09-22T18:12:23.000Z,0.77
2022-09-22T18:14:52.148Z,0.80
2022-09-22T18:17:22.107Z,0.88
2022-09-22T18:19:48.782Z,0.75
2022-09-22T18:22:21.227Z,0.90
2022-09-22T18:24:55.119Z,1.30
2022-09-22T18:27:27.137Z,1.13
2022-09-22T18:29:58.470Z,1.35
2022-09-22T18:32:28.566Z,1.10
2022-09-22T18:34:56.296Z,1.20
2022-09-22T18:37:24.935Z,1.20
2022-09-22T18:39:51.620Z,1.17
2022-09-22T18:42:20.235Z,1.20
2022-09-22T18:47:18.456Z,1.67
2022-09-22T18:49:48.139Z,1.20
2022-09-22T18:52:21.545Z,1.67
2022-09-22T18:54:48.567Z,1.70
2022-09-22T18:57:15.592Z,2.58
2022-09-22T18:59:42.326Z,1.70
2022-09-22T19:02:11.805Z,1.98
2022-09-22T19:04:40.075Z,2.15
2022-09-22T19:07:25.371Z,2.20
2022-09-22T19:09:52.890Z,1.83
2022-09-22T19:12:21.674Z,1.90
2022-09-22T19:14:57.057Z,1.80
2022-09-22T19:17:24.618Z,2.25
2022-09-22T19:19:51.858Z,1.50
2022-09-22T19:22:18.940Z,2.17
2022-09-22T19:24:46.264Z,1.83
2022-09-22T19:27:17.833Z,1.67
2022-09-22T19:29:44.566Z,1.60
2022-09-22T19:32:11.279Z,2.08
2022-09-22T19:34:37.961Z,2.10
2022-09-22T19:37:04.672Z,2.15
2022-09-22T19:39:32.223Z,2.95
2022-09-22T19:42:00.075Z,2.60
2022-09-22T19:44:29.694Z,2.53
2022-09-22T19:46:56.456Z,2.63
2022-09-22T19:49:25.562Z,2.83
2022-09-22T19:51:53.719Z,2.78
2022-09-22T19:54:20.986Z,2.75
2022-09-22T19:56:48.524Z,3.13
2022-09-22T19:59:16.755Z,3.03
2022-09-22T20:01:43.650Z,3.10
2022-09-22T20:04:15.792Z,3.83
2022-09-22T20:06:42.488Z,3.60
2022-09-22T20:09:09.484Z,3.40
2022-09-22T20:11:45.693Z,2.63
2022-09-22T20:14:23.693Z,3.47
2022-09-22T20:16:55.817Z,3.20
2022-09-22T20:19:23.946Z,2.90
2022-09-22T20:21:51.449Z,3.28
2022-09-22T20:24:21.302Z,3.10
2022-09-22T20:26:48.563Z,2.50
2022-09-22T20:29:16.670Z,2.38
2022-09-22T20:31:43.768Z,2.47
2022-09-22T20:34:15.139Z,2.42
2022-09-22T20:36:43.299Z,2.85
2022-09-22T20:39:15.069Z,2.50
2022-09-22T20:41:43.082Z,2.38
2022-09-22T20:44:14.812Z,1.90
2022-09-22T20:46:42.580Z,2.08
2022-09-22T20:49:12.957Z,2.03
2022-09-22T20:51:40.633Z,1.75
2022-09-22T20:54:07.873Z,1.90
2022-09-22T20:56:38.311Z,2.00
2022-09-22T20:59:07.569Z,1.63
2022-09-22T21:01:34.429Z,1.70
2022-09-22T21:04:01.491Z,2.28
2022-09-22T21:06:28.247Z,1.83
2022-09-22T21:09:13.647Z,1.77
2022-09-22T21:11:40.437Z,1.98
2022-09-22T21:14:07.232Z,2.05
2022-09-22T21:16:35.596Z,2.42
2022-09-22T21:19:03.436Z,2.45
2022-09-22T21:21:32.001Z,1.90
2022-09-22T21:26:29.694Z,2.00
2022-09-22T21:28:56.637Z,2.25
2022-09-22T21:31:23.670Z,2.00
2022-09-22T21:33:51.728Z,1.73
2022-09-22T21:36:22.509Z,2.17
2022-09-22T21:38:54.670Z,2.25
2022-09-22T21:41:23.317Z,2.30
2022-09-22T21:46:19.448Z,2.10
2022-09-22T21:48:46.583Z,2.78
2022-09-22T21:51:21.509Z,2.67
2022-09-22T21:53:52.155Z,2.20
2022-09-22T21:56:20.583Z,2.15
2022-09-22T21:58:50.380Z,2.58
2022-09-22T22:01:17.124Z,2.45
2022-09-22T22:03:45.828Z,2.50
2022-09-22T22:08:46.296Z,2.30
2022-09-22T22:11:22.707Z,2.28
2022-09-22T22:13:54.363Z,2.35
2022-09-22T22:16:23.582Z,2.40
2022-09-22T22:18:50.393Z,2.70
2022-09-22T22:21:19.758Z,2.78
2022-09-22T22:23:48.321Z,2.75
2022-09-22T22:26:19.995Z,2.53
2022-09-22T22:28:48.293Z,2.17
2022-09-22T22:31:17.760Z,2.28
2022-09-22T22:33:44.802Z,2.65
2022-09-22T22:36:14.043Z,2.63
2022-09-22T22:38:42.400Z,2.35
2022-09-22T22:41:11.715Z,2.60
2022-09-22T22:43:39.291Z,2.40
2022-09-22T22:46:07.744Z,2.80
2022-09-22T22:48:36.157Z,2.25
2022-09-22T22:51:29.543Z,2.75
2022-09-22T22:53:56.367Z,2.45
2022-09-22T22:56:25.855Z,2.35
2022-09-22T22:58:53.117Z,2.90
2022-09-22T23:01:26.969Z,2.55
2022-09-22T23:03:59.123Z,2.60
2022-09-22T23:06:29.675Z,2.47
2022-09-22T23:08:56.683Z,2.42
2022-09-22T23:11:32.623Z,2.20
2022-09-22T23:14:03.114Z,2.38
2022-09-22T23:16:33.332Z,2.78
2022-09-22T23:19:02.137Z,3.00
2022-09-22T23:21:32.363Z,2.67
2022-09-22T23:24:00.898Z,2.90
2022-09-22T23:26:29.702Z,2.70
2022-09-22T23:28:58.512Z,3.13
2022-09-22T23:31:26.322Z,3.10
2022-09-22T23:33:53.528Z,3.30
2022-09-22T23:36:29.495Z,2.70
2022-09-22T23:38:57.388Z,3.00
2022-09-22T23:41:24.623Z,3.70
2022-09-22T23:43:51.688Z,3.03
2022-09-22T23:46:18.670Z,3.17
2022-09-22T23:48:47.381Z,3.67
2022-09-22T23:53:41.622Z,3.97
2022-09-22T23:56:08.476Z,3.65
2022-09-22T23:58:35.933Z,3.35
